sensor_id;sensor_type;location;lat;lon;timestamp;temperature;humidity
3818;DHT22;1924;48.078;11.516;2023-04-24T04:01:02;10.10;99.90
3818;DHT22;1924;48.078;11.516;2023-04-24T04:03:29;10.10;99.90
3818;DHT22;1924;48.078;11.516;2023-04-24T04:05:56;10.10;99.90
3818;DHT22;1924;48.078;11.516;2023-04-24T04:08:22;10.10;99.90
3818;DHT22;1924;48.078;11.516;2023-04-24T04:10:49;10.10;99.90
3818;DHT22;1924;48.078;11.516;2023-04-24T04:13:16;10.10;99.90
3818;DHT22;1924;48.078;11.516;2023-04-24T04:15:43;10.10;99.90
3818;DHT22;1924;48.078;11.516;2023-04-24T04:18:11;10.10;99.90
3818;DHT22;1924;48.078;11.516;2023-04-24T04:20:37;10.10;99.90
3818;DHT22;1924;48.078;11.516;2023-04-24T04:23:04;10.10;99.90
3818;DHT22;1924;48.078;11.516;2023-04-24T04:25:31;10.10;99.90
3818;DHT22;1924;48.078;11.516;2023-04-24T04:27:58;10.00;99.90
3818;DHT22;1924;48.078;11.516;2023-04-24T04:30:25;10.00;99.90
3818;DHT22;1924;48.078;11.516;2023-04-24T04:32:51;10.00;99.90
3818;DHT22;1924;48.078;11.516;2023-04-24T04:35:19;10.10;99.90
3818;DHT22;1924;48.078;11.516;2023-04-24T04:37:46;10.00;99.90
3818;DHT22;1924;48.078;11.516;2023-04-24T04:40:13;10.10;99.90
3818;DHT22;1924;48.078;11.516;2023-04-24T04:42:40;10.10;99.90
3818;DHT22;1924;48.078;11.516;2023-04-24T04:45:08;10.10;99.90
3818;DHT22;1924;48.078;11.516;2023-04-24T04:47:37;10.10;99.90
3818;DHT22;1924;48.078;11.516;2023-04-24T04:50:05;10.10;99.90
3818;DHT22;1924;48.078;11.516;2023-04-24T04:52:33;10.00;99.90
3818;DHT22;1924;48.078;11.516;2023-04-24T04:55:00;10.10;99.90
3818;DHT22;1924;48.078;11.516;2023-04-24T04:57:27;10.10;99.90
3818;DHT22;1924;48.078;11.516;2023-04-24T04:59:54;10.10;99.90
3818;DHT22;1924;48.078;11.516;2023-04-24T05:02:20;10.00;99.90
3818;DHT22;1924;48.078;11.516;2023-04-24T05:04:47;10.00;99.90
3818;DHT22;1924;48.078;11.516;2023-04-24T05:07:14;10.00;99.90
3818;DHT22;1924;48.078;11.516;2023-04-24T05:09:42;10.10;99.90
3818;DHT22;1924;48.078;11.516;2023-04-24T05:12:10;10.10;99.90
3818;DHT22;1924;48.078;11.516;2023-04-24T05:14:36;10.20;99.90
3818;DHT22;1924;48.078;11.516;2023-04-24T05:17:03;10.20;99.90
3818;DHT22;1924;48.078;11.516;2023-04-24T05:19:30;10.20;99.90
3818;DHT22;1924;48.078;11.516;2023-04-24T05:21:58;10.20;99.90
3818;DHT22;1924;48.078;11.516;2023-04-24T05:24:28;10.20;99.90
3818;DHT22;1924;48.078;11.516;2023-04-24T05:26:56;10.30;99.90
3818;DHT22;1924;48.078;11.516;2023-04-24T05:29:24;10.30;99.90
3818;DHT22;1924;48.078;11.516;2023-04-24T05:31:51;10.40;99.90
3818;DHT22;1924;48.078;11.516;2023-04-24T05:34:18;10.30;99.90
3818;DHT22;1924;48.078;11.516;2023-04-24T05:36:45;10.30;99.90
3818;DHT22;1924;48.078;11.516;2023-04-24T05:39:11;10.30;99.90
3818;DHT22;1924;48.078;11.516;2023-04-24T05:41:38;10.40;99.90
3818;DHT22;1924;48.078;11.516;2023-04-24T05:44:06;10.30;99.90
3818;DHT22;1924;48.078;11.516;2023-04-24T05:46:33;10.40;99.90
3818;DHT22;1924;48.078;11.516;2023-04-24T05:49:00;10.40;99.90
3818;DHT22;1924;48.078;11.516;2023-04-24T05:51:27;10.30;99.90
3818;DHT22;1924;48.078;11.516;2023-04-24T05:53:54;10.20;99.90
3818;DHT22;1924;48.078;11.516;2023-04-24T05:56:21;10.40;99.90
3818;DHT22;1924;48.078;11.516;2023-04-24T05:58:48;10.40;99.90
3818;DHT22;1924;48.078;11.516;2023-04-24T06:01:16;10.40;99.90
3818;DHT22;1924;48.078;11.516;2023-04-24T06:03:43;10.40;99.90
3818;DHT22;1924;48.078;11.516;2023-04-24T06:06:10;10.60;99.90
3818;DHT22;1924;48.078;11.516;2023-04-24T06:08:37;10.70;99.90
3818;DHT22;1924;48.078;11.516;2023-04-24T06:11:04;10.70;99.90
3818;DHT22;1924;48.078;11.516;2023-04-24T06:13:30;10.80;99.90
3818;DHT22;1924;48.078;11.516;2023-04-24T06:15:57;10.80;99.90
3818;DHT22;1924;48.078;11.516;2023-04-24T06:18:25;10.90;99.90
3818;DHT22;1924;48.078;11.516;2023-04-24T06:20:52;10.80;99.90
3818;DHT22;1924;48.078;11.516;2023-04-24T06:23:20;10.80;99.90
3818;DHT22;1924;48.078;11.516;2023-04-24T06:25:47;10.80;99.90
3818;DHT22;1924;48.078;11.516;2023-04-24T06:28:14;10.90;99.90
3818;DHT22;1924;48.078;11.516;2023-04-24T06:30:40;10.80;99.90
3818;DHT22;1924;48.078;11.516;2023-04-24T06:33:08;10.70;99.90
3818;DHT22;1924;48.078;11.516;2023-04-24T06:35:37;10.80;99.90
3818;DHT22;1924;48.078;11.516;2023-04-24T06:38:04;10.90;99.90
3818;DHT22;1924;48.078;11.516;2023-04-24T06:40:31;11.10;99.90
3818;DHT22;1924;48.078;11.516;2023-04-24T06:42:58;11.20;99.90
3818;DHT22;1924;48.078;11.516;2023-04-24T06:45:28;11.30;99.90
3818;DHT22;1924;48.078;11.516;2023-04-24T06:47:54;11.20;99.90
3818;DHT22;1924;48.078;11.516;2023-04-24T06:50:21;11.30;99.90
3818;DHT22;1924;48.078;11.516;2023-04-24T06:52:49;11.40;99.90
3818;DHT22;1924;48.078;11.516;2023-04-24T06:55:16;11.50;99.90
3818;DHT22;1924;48.078;11.516;2023-04-24T06:57:43;11.50;99.90
3818;DHT22;1924;48.078;11.516;2023-04-24T07:00:11;11.70;99.90
3818;DHT22;1924;48.078;11.516;2023-04-24T07:02:38;11.80;99.90
3818;DHT22;1924;48.078;11.516;2023-04-24T07:05:05;11.80;99.90
3818;DHT22;1924;48.078;11.516;2023-04-24T07:07:33;11.90;99.90
3818;DHT22;1924;48.078;11.516;2023-04-24T07:10:05;11.80;99.90
3818;DHT22;1924;48.078;11.516;2023-04-24T07:12:32;11.70;99.90
3818;DHT22;1924;48.078;11.516;2023-04-24T07:14:59;11.80;99.90
3818;DHT22;1924;48.078;11.516;2023-04-24T07:17:26;11.80;99.90
3818;DHT22;1924;48.078;11.516;2023-04-24T07:19:53;11.70;99.90
3818;DHT22;1924;48.078;11.516;2023-04-24T07:22:19;11.70;99.90
3818;DHT22;1924;48.078;11.516;2023-04-24T07:24:46;11.70;99.90
3818;DHT22;1924;48.078;11.516;2023-04-24T07:27:14;11.80;99.90
3818;DHT22;1924;48.078;11.516;2023-04-24T07:29:41;12.00;99.90
3818;DHT22;1924;48.078;11.516;2023-04-24T07:32:08;12.30;99.90
3818;DHT22;1924;48.078;11.516;2023-04-24T07:34:35;12.50;99.90
3818;DHT22;1924;48.078;11.516;2023-04-24T07:37:01;12.40;99.90
3818;DHT22;1924;48.078;11.516;2023-04-24T07:39:28;12.20;99.90
3818;DHT22;1924;48.078;11.516;2023-04-24T07:41:55;12.00;99.90
3818;DHT22;1924;48.078;11.516;2023-04-24T07:44:23;11.80;99.90
3818;DHT22;1924;48.078;11.516;2023-04-24T07:46:50;11.70;99.90
3818;DHT22;1924;48.078;11.516;2023-04-24T07:49:17;11.60;99.90
3818;DHT22;1924;48.078;11.516;2023-04-24T07:51:44;11.60;99.90
3818;DHT22;1924;48.078;11.516;2023-04-24T07:54:11;11.70;99.90
3818;DHT22;1924;48.078;11.516;2023-04-24T07:56:37;11.80;99.90
3818;DHT22;1924;48.078;11.516;2023-04-24T07:59:05;11.90;99.90
3818;DHT22;1924;48.078;11.516;2023-04-24T08:01:33;12.00;99.90
3818;DHT22;1924;48.078;11.516;2023-04-24T08:04:00;12.00;99.90
3818;DHT22;1924;48.078;11.516;2023-04-24T08:06:26;12.00;99.90
3818;DHT22;1924;48.078;11.516;2023-04-24T08:08:55;12.00;99.90
3818;DHT22;1924;48.078;11.516;2023-04-24T08:11:22;12.10;99.90
3818;DHT22;1924;48.078;11.516;2023-04-24T08:13:49;12.20;99.90
3818;DHT22;1924;48.078;11.516;2023-04-24T08:16:15;12.10;99.90
3818;DHT22;1924;48.078;11.516;2023-04-24T08:18:43;12.10;99.90
3818;DHT22;1924;48.078;11.516;2023-04-24T08:21:10;12.20;99.90
3818;DHT22;1924;48.078;11.516;2023-04-24T08:23:42;12.00;99.90
3818;DHT22;1924;48.078;11.516;2023-04-24T08:26:09;12.00;99.90
3818;DHT22;1924;48.078;11.516;2023-04-24T08:28:36;11.90;99.90
3818;DHT22;1924;48.078;11.516;2023-04-24T08:31:03;11.90;99.90
3818;DHT22;1924;48.078;11.516;2023-04-24T08:33:30;11.80;99.90
3818;DHT22;1924;48.078;11.516;2023-04-24T08:36:01;11.80;99.90
3818;DHT22;1924;48.078;11.516;2023-04-24T08:38:28;11.70;99.90
3818;DHT22;1924;48.078;11.516;2023-04-24T08:40:57;11.60;99.90
3818;DHT22;1924;48.078;11.516;2023-04-24T08:43:25;11.50;99.90
3818;DHT22;1924;48.078;11.516;2023-04-24T08:45:52;11.40;99.90
3818;DHT22;1924;48.078;11.516;2023-04-24T08:48:20;11.40;99.90
3818;DHT22;1924;48.078;11.516;2023-04-24T08:50:48;11.50;99.90
3818;DHT22;1924;48.078;11.516;2023-04-24T08:53:18;11.50;99.90
3818;DHT22;1924;48.078;11.516;2023-04-24T08:55:47;11.40;99.90
3818;DHT22;1924;48.078;11.516;2023-04-24T08:58:15;11.30;99.90
3818;DHT22;1924;48.078;11.516;2023-04-24T09:00:43;11.30;99.90
3818;DHT22;1924;48.078;11.516;2023-04-24T09:03:13;11.20;99.90
3818;DHT22;1924;48.078;11.516;2023-04-24T09:05:41;11.20;99.90
3818;DHT22;1924;48.078;11.516;2023-04-24T09:08:11;11.20;99.90
3818;DHT22;1924;48.078;11.516;2023-04-24T09:10:41;11.30;99.90
3818;DHT22;1924;48.078;11.516;2023-04-24T09:13:08;11.30;99.90
3818;DHT22;1924;48.078;11.516;2023-04-24T09:15:35;11.40;99.90
3818;DHT22;1924;48.078;11.516;2023-04-24T09:18:02;11.20;99.90
3818;DHT22;1924;48.078;11.516;2023-04-24T09:20:29;11.30;99.90
3818;DHT22;1924;48.078;11.516;2023-04-24T09:22:57;11.30;99.90
3818;DHT22;1924;48.078;11.516;2023-04-24T09:25:31;11.20;99.90
3818;DHT22;1924;48.078;11.516;2023-04-24T09:28:02;11.20;99.90
3818;DHT22;1924;48.078;11.516;2023-04-24T09:30:29;11.30;99.90
3818;DHT22;1924;48.078;11.516;2023-04-24T09:33:12;11.40;99.90
3818;DHT22;1924;48.078;11.516;2023-04-24T09:35:41;11.60;99.90
3818;DHT22;1924;48.078;11.516;2023-04-24T09:38:09;11.80;99.90
3818;DHT22;1924;48.078;11.516;2023-04-24T09:40:36;12.10;99.90
3818;DHT22;1924;48.078;11.516;2023-04-24T09:43:04;12.30;99.90
3818;DHT22;1924;48.078;11.516;2023-04-24T09:45:35;12.20;99.90
3818;DHT22;1924;48.078;11.516;2023-04-24T09:48:03;12.50;99.90
3818;DHT22;1924;48.078;11.516;2023-04-24T09:50:31;12.70;99.90
3818;DHT22;1924;48.078;11.516;2023-04-24T09:53:02;12.70;99.90
3818;DHT22;1924;48.078;11.516;2023-04-24T09:55:29;12.70;99.90
3818;DHT22;1924;48.078;11.516;2023-04-24T09:57:57;12.80;99.90
3818;DHT22;1924;48.078;11.516;2023-04-24T10:00:28;12.90;99.90
3818;DHT22;1924;48.078;11.516;2023-04-24T10:02:55;12.90;99.90
3818;DHT22;1924;48.078;11.516;2023-04-24T10:05:29;13.00;99.90
3818;DHT22;1924;48.078;11.516;2023-04-24T10:07:57;13.30;99.90
3818;DHT22;1924;48.078;11.516;2023-04-24T10:10:24;13.30;99.90
3818;DHT22;1924;48.078;11.516;2023-04-24T10:12:52;13.30;99.90
3818;DHT22;1924;48.078;11.516;2023-04-24T10:15:20;13.30;99.90
3818;DHT22;1924;48.078;11.516;2023-04-24T10:17:48;13.40;99.90
3818;DHT22;1924;48.078;11.516;2023-04-24T10:20:19;13.40;99.90
3818;DHT22;1924;48.078;11.516;2023-04-24T10:22:48;13.40;99.90
3818;DHT22;1924;48.078;11.516;2023-04-24T10:25:17;13.40;99.90
3818;DHT22;1924;48.078;11.516;2023-04-24T10:27:45;13.40;99.90
3818;DHT22;1924;48.078;11.516;2023-04-24T10:30:13;13.40;99.90
3818;DHT22;1924;48.078;11.516;2023-04-24T10:32:40;13.30;99.90
3818;DHT22;1924;48.078;11.516;2023-04-24T10:35:09;13.00;99.90
3818;DHT22;1924;48.078;11.516;2023-04-24T10:37:42;12.80;99.90
3818;DHT22;1924;48.078;11.516;2023-04-24T10:40:10;12.60;99.90
3818;DHT22;1924;48.078;11.516;2023-04-24T10:42:40;12.50;99.90
3818;DHT22;1924;48.078;11.516;2023-04-24T10:45:07;12.50;99.90
3818;DHT22;1924;48.078;11.516;2023-04-24T10:47:42;12.70;99.90
3818;DHT22;1924;48.078;11.516;2023-04-24T10:50:11;12.70;99.90
3818;DHT22;1924;48.078;11.516;2023-04-24T10:52:44;12.30;99.90
3818;DHT22;1924;48.078;11.516;2023-04-24T10:55:12;11.80;99.90
3818;DHT22;1924;48.078;11.516;2023-04-24T10:57:39;11.30;99.90
3818;DHT22;1924;48.078;11.516;2023-04-24T11:00:18;11.20;99.90
3818;DHT22;1924;48.078;11.516;2023-04-24T11:02:46;11.20;99.90
3818;DHT22;1924;48.078;11.516;2023-04-24T11:05:17;11.30;99.90
3818;DHT22;1924;48.078;11.516;2023-04-24T11:08:10;11.30;99.90
3818;DHT22;1924;48.078;11.516;2023-04-24T11:10:39;11.50;99.90
3818;DHT22;1924;48.078;11.516;2023-04-24T11:13:06;11.80;99.90
3818;DHT22;1924;48.078;11.516;2023-04-24T11:15:33;12.50;99.90
3818;DHT22;1924;48.078;11.516;2023-04-24T11:18:00;13.50;99.90
3818;DHT22;1924;48.078;11.516;2023-04-24T11:20:28;14.00;99.90
3818;DHT22;1924;48.078;11.516;2023-04-24T11:22:58;14.10;99.90
3818;DHT22;1924;48.078;11.516;2023-04-24T11:25:31;14.00;99.90
3818;DHT22;1924;48.078;11.516;2023-04-24T11:28:03;13.90;99.90
3818;DHT22;1924;48.078;11.516;2023-04-24T11:30:31;13.90;99.90
3818;DHT22;1924;48.078;11.516;2023-04-24T11:33:02;14.20;99.90
3818;DHT22;1924;48.078;11.516;2023-04-24T11:35:35;14.60;99.90
3818;DHT22;1924;48.078;11.516;2023-04-24T11:38:04;14.70;99.90
3818;DHT22;1924;48.078;11.516;2023-04-24T11:40:31;14.50;99.90
3818;DHT22;1924;48.078;11.516;2023-04-24T11:42:59;14.10;99.90
3818;DHT22;1924;48.078;11.516;2023-04-24T11:45:28;13.40;99.90
3818;DHT22;1924;48.078;11.516;2023-04-24T11:47:56;13.10;99.90
3818;DHT22;1924;48.078;11.516;2023-04-24T11:50:25;13.00;99.90
3818;DHT22;1924;48.078;11.516;2023-04-24T11:52:54;12.90;99.90
3818;DHT22;1924;48.078;11.516;2023-04-24T11:55:26;13.00;99.90
3818;DHT22;1924;48.078;11.516;2023-04-24T11:57:54;13.00;99.90
3818;DHT22;1924;48.078;11.516;2023-04-24T12:00:24;12.70;99.90
3818;DHT22;1924;48.078;11.516;2023-04-24T12:02:51;12.80;99.90
3818;DHT22;1924;48.078;11.516;2023-04-24T12:05:21;12.60;99.90
3818;DHT22;1924;48.078;11.516;2023-04-24T12:07:48;12.30;99.90
3818;DHT22;1924;48.078;11.516;2023-04-24T12:10:21;12.10;99.90
3818;DHT22;1924;48.078;11.516;2023-04-24T12:12:48;12.20;99.90
3818;DHT22;1924;48.078;11.516;2023-04-24T12:15:18;12.30;99.90
3818;DHT22;1924;48.078;11.516;2023-04-24T12:17:45;12.20;99.90
3818;DHT22;1924;48.078;11.516;2023-04-24T12:20:12;12.20;99.90
3818;DHT22;1924;48.078;11.516;2023-04-24T12:22:47;12.30;99.90
3818;DHT22;1924;48.078;11.516;2023-04-24T12:25:16;12.20;99.90
3818;DHT22;1924;48.078;11.516;2023-04-24T12:27:45;12.30;99.90
3818;DHT22;1924;48.078;11.516;2023-04-24T12:30:14;12.60;99.90
3818;DHT22;1924;48.078;11.516;2023-04-24T12:32:42;13.00;99.90
3818;DHT22;1924;48.078;11.516;2023-04-24T12:35:09;13.20;99.90
3818;DHT22;1924;48.078;11.516;2023-04-24T12:37:36;12.90;99.90
3818;DHT22;1924;48.078;11.516;2023-04-24T12:40:06;12.90;99.90
3818;DHT22;1924;48.078;11.516;2023-04-24T12:42:34;12.80;99.90
3818;DHT22;1924;48.078;11.516;2023-04-24T12:45:04;12.80;99.90
3818;DHT22;1924;48.078;11.516;2023-04-24T12:47:31;12.80;99.90
3818;DHT22;1924;48.078;11.516;2023-04-24T12:49:58;12.70;99.90
3818;DHT22;1924;48.078;11.516;2023-04-24T12:52:27;12.60;99.90
3818;DHT22;1924;48.078;11.516;2023-04-24T12:54:55;12.60;99.90
3818;DHT22;1924;48.078;11.516;2023-04-24T12:57:23;12.50;99.90
3818;DHT22;1924;48.078;11.516;2023-04-24T12:59:50;12.50;99.90
3818;DHT22;1924;48.078;11.516;2023-04-24T13:02:18;12.70;99.90
3818;DHT22;1924;48.078;11.516;2023-04-24T13:04:45;12.80;99.90
3818;DHT22;1924;48.078;11.516;2023-04-24T13:07:12;12.80;99.90
3818;DHT22;1924;48.078;11.516;2023-04-24T13:09:40;12.90;99.90
3818;DHT22;1924;48.078;11.516;2023-04-24T13:12:07;13.00;99.90
3818;DHT22;1924;48.078;11.516;2023-04-24T13:14:34;13.40;99.90
3818;DHT22;1924;48.078;11.516;2023-04-24T13:17:01;14.00;99.90
3818;DHT22;1924;48.078;11.516;2023-04-24T13:19:29;14.30;99.90
3818;DHT22;1924;48.078;11.516;2023-04-24T13:21:57;14.60;99.90
3818;DHT22;1924;48.078;11.516;2023-04-24T13:24:24;14.60;99.90
3818;DHT22;1924;48.078;11.516;2023-04-24T13:26:51;14.30;99.90
3818;DHT22;1924;48.078;11.516;2023-04-24T13:29:18;14.10;99.90
3818;DHT22;1924;48.078;11.516;2023-04-24T13:31:46;13.70;99.90
3818;DHT22;1924;48.078;11.516;2023-04-24T13:34:13;13.50;99.90
3818;DHT22;1924;48.078;11.516;2023-04-24T13:36:41;13.10;99.90
3818;DHT22;1924;48.078;11.516;2023-04-24T13:39:08;12.90;99.90
3818;DHT22;1924;48.078;11.516;2023-04-24T13:41:36;12.70;99.90
3818;DHT22;1924;48.078;11.516;2023-04-24T13:44:03;12.70;99.90
3818;DHT22;1924;48.078;11.516;2023-04-24T13:46:30;12.50;99.90
3818;DHT22;1924;48.078;11.516;2023-04-24T13:48:57;12.50;99.90
3818;DHT22;1924;48.078;11.516;2023-04-24T13:51:25;12.60;99.90
3818;DHT22;1924;48.078;11.516;2023-04-24T13:53:54;12.60;99.90
3818;DHT22;1924;48.078;11.516;2023-04-24T13:56:22;13.00;99.90
3818;DHT22;1924;48.078;11.516;2023-04-24T13:58:49;13.40;99.90
3818;DHT22;1924;48.078;11.516;2023-04-24T14:01:15;13.50;99.90
3818;DHT22;1924;48.078;11.516;2023-04-24T14:03:42;13.50;99.90
3818;DHT22;1924;48.078;11.516;2023-04-24T14:06:09;13.50;99.90
3818;DHT22;1924;48.078;11.516;2023-04-24T14:08:36;13.40;99.90
3818;DHT22;1924;48.078;11.516;2023-04-24T14:11:04;13.80;99.90
3818;DHT22;1924;48.078;11.516;2023-04-24T14:13:31;14.00;99.90
3818;DHT22;1924;48.078;11.516;2023-04-24T14:15:58;13.90;99.90
3818;DHT22;1924;48.078;11.516;2023-04-24T14:18:25;14.10;99.90
3818;DHT22;1924;48.078;11.516;2023-04-24T14:20:52;13.90;99.90
3818;DHT22;1924;48.078;11.516;2023-04-24T14:23:19;13.70;99.90
3818;DHT22;1924;48.078;11.516;2023-04-24T14:25:45;13.50;99.90
3818;DHT22;1924;48.078;11.516;2023-04-24T14:28:17;13.50;99.90
3818;DHT22;1924;48.078;11.516;2023-04-24T14:30:44;13.40;98.50
3818;DHT22;1924;48.078;11.516;2023-04-24T14:33:11;13.30;95.60
3818;DHT22;1924;48.078;11.516;2023-04-24T14:35:39;13.50;96.90
3818;DHT22;1924;48.078;11.516;2023-04-24T14:38:07;13.40;95.40
3818;DHT22;1924;48.078;11.516;2023-04-24T14:40:34;13.50;95.50
3818;DHT22;1924;48.078;11.516;2023-04-24T14:43:01;13.60;95.80
3818;DHT22;1924;48.078;11.516;2023-04-24T14:45:29;13.60;95.50
3818;DHT22;1924;48.078;11.516;2023-04-24T14:47:57;13.60;94.20
3818;DHT22;1924;48.078;11.516;2023-04-24T14:50:23;13.60;94.40
3818;DHT22;1924;48.078;11.516;2023-04-24T14:52:53;13.50;94.70
3818;DHT22;1924;48.078;11.516;2023-04-24T14:55:20;13.40;93.70
3818;DHT22;1924;48.078;11.516;2023-04-24T14:57:47;13.30;93.30
3818;DHT22;1924;48.078;11.516;2023-04-24T15:00:14;13.40;92.80
3818;DHT22;1924;48.078;11.516;2023-04-24T15:02:43;13.40;92.10
3818;DHT22;1924;48.078;11.516;2023-04-24T15:05:10;13.20;92.50
3818;DHT22;1924;48.078;11.516;2023-04-24T15:07:37;13.40;93.30
3818;DHT22;1924;48.078;11.516;2023-04-24T15:10:05;13.60;93.30
3818;DHT22;1924;48.078;11.516;2023-04-24T15:12:32;13.90;92.80
3818;DHT22;1924;48.078;11.516;2023-04-24T15:15:00;14.00;92.60
3818;DHT22;1924;48.078;11.516;2023-04-24T15:17:26;14.20;91.40
3818;DHT22;1924;48.078;11.516;2023-04-24T15:19:55;14.20;90.40
3818;DHT22;1924;48.078;11.516;2023-04-24T15:22:22;13.90;89.40
3818;DHT22;1924;48.078;11.516;2023-04-24T15:24:49;13.60;90.40
3818;DHT22;1924;48.078;11.516;2023-04-24T15:27:15;13.50;90.60
3818;DHT22;1924;48.078;11.516;2023-04-24T15:29:42;13.60;90.20
3818;DHT22;1924;48.078;11.516;2023-04-24T15:32:09;13.50;90.10
3818;DHT22;1924;48.078;11.516;2023-04-24T15:34:36;13.60;90.10
3818;DHT22;1924;48.078;11.516;2023-04-24T15:37:04;13.60;91.40
3818;DHT22;1924;48.078;11.516;2023-04-24T15:39:31;13.80;90.60
3818;DHT22;1924;48.078;11.516;2023-04-24T15:41:59;13.80;90.00
3818;DHT22;1924;48.078;11.516;2023-04-24T15:44:25;13.90;88.00
3818;DHT22;1924;48.078;11.516;2023-04-24T15:46:52;13.70;84.00
3818;DHT22;1924;48.078;11.516;2023-04-24T15:49:19;13.60;87.90
3818;DHT22;1924;48.078;11.516;2023-04-24T15:51:45;13.60;87.40
3818;DHT22;1924;48.078;11.516;2023-04-24T15:54:13;13.40;86.40
3818;DHT22;1924;48.078;11.516;2023-04-24T15:56:40;13.10;85.80
3818;DHT22;1924;48.078;11.516;2023-04-24T15:59:07;12.90;85.20
3818;DHT22;1924;48.078;11.516;2023-04-24T16:01:34;12.90;86.40
3818;DHT22;1924;48.078;11.516;2023-04-24T16:04:00;12.80;88.30
3818;DHT22;1924;48.078;11.516;2023-04-24T16:06:27;13.00;88.00
3818;DHT22;1924;48.078;11.516;2023-04-24T16:08:54;12.80;90.20
3818;DHT22;1924;48.078;11.516;2023-04-24T16:11:22;12.90;87.00
3818;DHT22;1924;48.078;11.516;2023-04-24T16:13:49;12.80;89.00
3818;DHT22;1924;48.078;11.516;2023-04-24T16:16:15;12.90;90.20
3818;DHT22;1924;48.078;11.516;2023-04-24T16:18:42;12.80;86.10
3818;DHT22;1924;48.078;11.516;2023-04-24T16:21:09;12.80;86.20
3818;DHT22;1924;48.078;11.516;2023-04-24T16:23:35;12.90;86.40
3818;DHT22;1924;48.078;11.516;2023-04-24T16:26:02;13.00;86.50
3818;DHT22;1924;48.078;11.516;2023-04-24T16:28:30;13.00;83.70
3818;DHT22;1924;48.078;11.516;2023-04-24T16:30:57;13.10;83.70
3818;DHT22;1924;48.078;11.516;2023-04-24T16:33:24;13.00;84.30
3818;DHT22;1924;48.078;11.516;2023-04-24T16:35:51;12.70;80.70
3818;DHT22;1924;48.078;11.516;2023-04-24T16:38:17;12.60;81.50
3818;DHT22;1924;48.078;11.516;2023-04-24T16:40:44;12.50;82.50
3818;DHT22;1924;48.078;11.516;2023-04-24T16:43:11;12.50;83.90
3818;DHT22;1924;48.078;11.516;2023-04-24T16:45:39;12.50;82.90
3818;DHT22;1924;48.078;11.516;2023-04-24T16:48:06;12.50;83.10
3818;DHT22;1924;48.078;11.516;2023-04-24T16:50:35;12.50;83.70
3818;DHT22;1924;48.078;11.516;2023-04-24T16:53:02;12.40;83.40
3818;DHT22;1924;48.078;11.516;2023-04-24T16:55:29;12.40;84.60
3818;DHT22;1924;48.078;11.516;2023-04-24T16:57:56;12.30;84.10
3818;DHT22;1924;48.078;11.516;2023-04-24T17:00:23;12.30;84.40
3818;DHT22;1924;48.078;11.516;2023-04-24T17:02:51;12.20;84.80
3818;DHT22;1924;48.078;11.516;2023-04-24T17:05:18;12.20;84.20
3818;DHT22;1924;48.078;11.516;2023-04-24T17:07:47;12.00;84.60
3818;DHT22;1924;48.078;11.516;2023-04-24T17:10:14;12.10;86.00
3818;DHT22;1924;48.078;11.516;2023-04-24T17:12:41;12.10;86.80
3818;DHT22;1924;48.078;11.516;2023-04-24T17:15:08;12.10;85.50
3818;DHT22;1924;48.078;11.516;2023-04-24T17:17:35;12.10;85.30
3818;DHT22;1924;48.078;11.516;2023-04-24T17:20:03;12.10;84.50
3818;DHT22;1924;48.078;11.516;2023-04-24T17:22:30;12.00;84.60
3818;DHT22;1924;48.078;11.516;2023-04-24T17:24:57;12.00;86.20
3818;DHT22;1924;48.078;11.516;2023-04-24T17:27:24;12.10;86.30
3818;DHT22;1924;48.078;11.516;2023-04-24T17:29:50;12.10;83.30
3818;DHT22;1924;48.078;11.516;2023-04-24T17:32:18;12.20;84.10
3818;DHT22;1924;48.078;11.516;2023-04-24T17:34:44;12.00;82.30
3818;DHT22;1924;48.078;11.516;2023-04-24T17:37:13;11.90;83.20
3818;DHT22;1924;48.078;11.516;2023-04-24T17:39:40;11.90;83.40
3818;DHT22;1924;48.078;11.516;2023-04-24T17:42:07;11.90;84.50
3818;DHT22;1924;48.078;11.516;2023-04-24T17:44:34;11.80;81.60
3818;DHT22;1924;48.078;11.516;2023-04-24T17:47:01;11.60;82.40
3818;DHT22;1924;48.078;11.516;2023-04-24T17:49:29;11.70;82.30
3818;DHT22;1924;48.078;11.516;2023-04-24T17:51:56;11.60;84.40
3818;DHT22;1924;48.078;11.516;2023-04-24T17:54:24;11.70;83.40
3818;DHT22;1924;48.078;11.516;2023-04-24T17:56:50;11.60;84.00
3818;DHT22;1924;48.078;11.516;2023-04-24T17:59:18;11.50;83.60
3818;DHT22;1924;48.078;11.516;2023-04-24T18:01:45;11.50;85.40
3818;DHT22;1924;48.078;11.516;2023-04-24T18:04:11;11.50;86.40
3818;DHT22;1924;48.078;11.516;2023-04-24T18:06:38;11.40;84.70
3818;DHT22;1924;48.078;11.516;2023-04-24T18:09:05;11.30;85.60
3818;DHT22;1924;48.078;11.516;2023-04-24T18:11:34;11.30;86.30
3818;DHT22;1924;48.078;11.516;2023-04-24T18:14:01;11.30;86.90
3818;DHT22;1924;48.078;11.516;2023-04-24T18:16:27;11.30;86.60
3818;DHT22;1924;48.078;11.516;2023-04-24T18:18:54;11.20;87.50
3818;DHT22;1924;48.078;11.516;2023-04-24T18:21:21;11.10;88.50
3818;DHT22;1924;48.078;11.516;2023-04-24T18:23:49;11.00;88.90
3818;DHT22;1924;48.078;11.516;2023-04-24T18:26:16;10.90;90.60
3818;DHT22;1924;48.078;11.516;2023-04-24T18:28:44;10.80;91.00
3818;DHT22;1924;48.078;11.516;2023-04-24T18:31:11;10.70;91.90
3818;DHT22;1924;48.078;11.516;2023-04-24T18:33:38;10.70;92.00
3818;DHT22;1924;48.078;11.516;2023-04-24T18:36:05;10.60;92.30
3818;DHT22;1924;48.078;11.516;2023-04-24T18:38:31;10.60;93.00
3818;DHT22;1924;48.078;11.516;2023-04-24T18:40:58;10.40;93.30
3818;DHT22;1924;48.078;11.516;2023-04-24T18:43:25;10.30;93.50
3818;DHT22;1924;48.078;11.516;2023-04-24T18:45:53;10.30;94.10
3818;DHT22;1924;48.078;11.516;2023-04-24T18:48:20;10.30;95.40
3818;DHT22;1924;48.078;11.516;2023-04-24T18:50:47;10.30;95.10
3818;DHT22;1924;48.078;11.516;2023-04-24T18:53:14;10.20;95.40
3818;DHT22;1924;48.078;11.516;2023-04-24T18:55:42;10.20;95.20
3818;DHT22;1924;48.078;11.516;2023-04-24T18:58:09;10.30;95.00
3818;DHT22;1924;48.078;11.516;2023-04-24T19:00:36;10.30;94.60
3818;DHT22;1924;48.078;11.516;2023-04-24T19:03:04;10.20;94.40
3818;DHT22;1924;48.078;11.516;2023-04-24T19:05:32;10.10;94.80
3818;DHT22;1924;48.078;11.516;2023-04-24T19:07:59;10.10;94.30
3818;DHT22;1924;48.078;11.516;2023-04-24T19:10:26;10.10;94.70
3818;DHT22;1924;48.078;11.516;2023-04-24T19:12:53;10.10;94.90
3818;DHT22;1924;48.078;11.516;2023-04-24T19:15:22;10.10;95.00
3818;DHT22;1924;48.078;11.516;2023-04-24T19:17:48;9.90;96.10
3818;DHT22;1924;48.078;11.516;2023-04-24T19:20:17;9.90;96.70
3818;DHT22;1924;48.078;11.516;2023-04-24T19:22:44;9.80;96.40
3818;DHT22;1924;48.078;11.516;2023-04-24T19:25:11;9.80;95.70
3818;DHT22;1924;48.078;11.516;2023-04-24T19:27:38;9.80;96.30
3818;DHT22;1924;48.078;11.516;2023-04-24T19:30:06;9.80;96.40
3818;DHT22;1924;48.078;11.516;2023-04-24T19:32:33;9.80;96.60
3818;DHT22;1924;48.078;11.516;2023-04-24T19:35:00;9.80;96.80
3818;DHT22;1924;48.078;11.516;2023-04-24T19:37:28;9.80;97.40
3818;DHT22;1924;48.078;11.516;2023-04-24T19:39:56;9.70;96.60
3818;DHT22;1924;48.078;11.516;2023-04-24T19:42:23;9.70;96.80
3818;DHT22;1924;48.078;11.516;2023-04-24T19:44:50;9.70;96.30
3818;DHT22;1924;48.078;11.516;2023-04-24T19:47:17;9.70;96.70
3818;DHT22;1924;48.078;11.516;2023-04-24T19:49:43;9.70;97.40